createdAt,value
2018-07-02T00:00:10.015Z,0.43
2018-07-02T00:02:38.964Z,0.60
2018-07-02T00:05:07.824Z,0.70
2018-07-02T00:07:36.449Z,0.73
2018-07-02T00:10:05.270Z,0.80
2018-07-02T00:12:34.054Z,0.60
2018-07-02T00:15:02.777Z,0.60
2018-07-02T00:17:31.441Z,0.70
2018-07-02T00:20:00.229Z,0.47
2018-07-02T00:22:28.966Z,0.67
2018-07-02T00:24:57.645Z,0.60
2018-07-02T00:27:26.406Z,0.50
2018-07-02T00:29:55.148Z,0.60
2018-07-02T00:32:23.871Z,0.53
2018-07-02T00:34:52.522Z,0.60
2018-07-02T00:37:21.241Z,0.50
2018-07-02T00:39:49.944Z,0.40
2018-07-02T00:42:18.669Z,0.67
2018-07-02T00:44:47.298Z,0.60
2018-07-02T00:47:15.991Z,0.53
2018-07-02T00:49:44.679Z,0.77
2018-07-02T00:52:13.455Z,0.73
2018-07-02T00:54:42.142Z,0.83
2018-07-02T00:57:10.781Z,0.70
2018-07-02T00:59:39.473Z,0.90
2018-07-02T01:02:08.332Z,1.07
2018-07-02T01:04:36.976Z,0.90
2018-07-02T01:07:05.772Z,0.90
2018-07-02T01:09:34.544Z,1.13
2018-07-02T01:12:03.249Z,0.93
2018-07-02T01:14:31.958Z,1.20
2018-07-02T01:17:00.663Z,0.80
2018-07-02T01:19:29.322Z,0.77
2018-07-02T01:21:57.921Z,1.07
2018-07-02T01:24:26.562Z,1.10
2018-07-02T01:26:55.263Z,0.80
2018-07-02T01:29:23.922Z,0.70
2018-07-02T01:31:52.572Z,0.90
2018-07-02T01:34:21.466Z,1.13
2018-07-02T01:36:50.318Z,0.90
2018-07-02T01:39:19.000Z,0.97
2018-07-02T01:41:47.761Z,0.90
2018-07-02T01:44:16.481Z,0.90
2018-07-02T01:46:45.241Z,1.00
2018-07-02T01:49:14.105Z,0.73
2018-07-02T01:51:42.833Z,0.93
2018-07-02T01:54:11.535Z,0.80
2018-07-02T01:56:40.187Z,1.00
2018-07-02T01:59:08.919Z,0.90
2018-07-02T02:01:37.529Z,1.03
2018-07-02T02:04:06.260Z,1.10
2018-07-02T02:06:34.925Z,0.90
2018-07-02T02:09:03.816Z,0.93
2018-07-02T02:11:32.582Z,0.90
2018-07-02T02:14:01.287Z,1.17
2018-07-02T02:16:29.905Z,0.87
2018-07-02T02:18:58.600Z,0.80
2018-07-02T02:21:27.319Z,0.90
2018-07-02T02:23:55.893Z,0.97
2018-07-02T02:26:24.719Z,0.90
2018-07-02T02:28:54.012Z,0.80
2018-07-02T02:31:22.759Z,1.10
2018-07-02T02:33:51.480Z,1.10
2018-07-02T02:36:20.214Z,0.90
2018-07-02T02:38:48.874Z,0.63
2018-07-02T02:41:17.484Z,1.00
2018-07-02T02:43:46.256Z,1.00
2018-07-02T02:46:14.951Z,0.90
2018-07-02T02:48:43.616Z,0.60
2018-07-02T02:51:12.315Z,0.70
2018-07-02T02:53:41.099Z,0.90
2018-07-02T02:56:09.772Z,0.90
2018-07-02T02:58:38.502Z,0.83
2018-07-02T03:01:07.107Z,0.80
2018-07-02T03:03:35.777Z,0.83
2018-07-02T03:06:04.446Z,0.67
2018-07-02T03:08:33.181Z,0.80
2018-07-02T03:11:01.834Z,0.80
2018-07-02T03:13:30.522Z,0.97
2018-07-02T03:15:59.313Z,0.80
2018-07-02T03:18:27.956Z,0.90
2018-07-02T03:20:56.621Z,0.60
2018-07-02T03:23:25.324Z,0.60
2018-07-02T03:25:53.911Z,0.80
2018-07-02T03:28:22.544Z,1.00
2018-07-02T03:30:51.340Z,1.10
2018-07-02T03:33:20.052Z,0.97
2018-07-02T03:35:48.890Z,0.97
2018-07-02T03:38:17.645Z,0.90
2018-07-02T03:40:46.425Z,0.80
2018-07-02T03:43:15.116Z,0.77
2018-07-02T03:45:44.303Z,0.83
2018-07-02T03:48:12.929Z,1.00
2018-07-02T03:50:41.584Z,0.83
2018-07-02T03:53:10.257Z,0.80
2018-07-02T03:55:38.970Z,0.70
2018-07-02T03:58:07.767Z,0.60
2018-07-02T04:00:36.469Z,0.70
2018-07-02T04:03:05.233Z,0.80
2018-07-02T04:05:33.844Z,0.90
2018-07-02T04:08:02.512Z,0.80
2018-07-02T04:10:31.084Z,1.00
2018-07-02T04:12:59.971Z,0.90
2018-07-02T04:15:28.570Z,0.90
2018-07-02T04:17:57.298Z,1.10
2018-07-02T04:20:25.945Z,1.23
2018-07-02T04:22:54.846Z,0.90
2018-07-02T04:25:23.674Z,1.47
2018-07-02T04:27:52.318Z,1.07
2018-07-02T04:30:21.007Z,1.00
2018-07-02T04:32:49.722Z,0.80
2018-07-02T04:35:18.519Z,0.80
2018-07-02T04:37:47.254Z,0.83
2018-07-02T04:40:15.887Z,0.83
2018-07-02T04:42:44.596Z,1.00
2018-07-02T04:45:13.468Z,0.90
2018-07-02T04:47:42.184Z,0.90
2018-07-02T04:50:10.937Z,1.00
2018-07-02T04:52:39.701Z,0.80
2018-07-02T04:55:08.325Z,0.87
2018-07-02T04:57:37.014Z,0.73
2018-07-02T05:00:06.222Z,1.00
2018-07-02T05:02:34.921Z,1.07
2018-07-02T05:05:03.692Z,0.93
2018-07-02T05:07:32.310Z,0.80
2018-07-02T05:10:00.907Z,0.80
2018-07-02T05:12:29.604Z,0.80
2018-07-02T05:14:58.206Z,0.67
2018-07-02T05:17:26.778Z,0.80
2018-07-02T05:19:55.501Z,0.90
2018-07-02T05:22:24.148Z,0.83
2018-07-02T05:24:52.833Z,0.83
2018-07-02T05:27:21.463Z,1.00
2018-07-02T05:29:50.330Z,0.70
2018-07-02T05:32:18.900Z,0.80
2018-07-02T05:34:47.568Z,0.73
2018-07-02T05:37:16.188Z,0.60
2018-07-02T05:39:44.790Z,0.60
2018-07-02T05:42:13.443Z,0.93
2018-07-02T05:44:42.006Z,0.90
2018-07-02T05:47:10.722Z,0.67
2018-07-02T05:49:39.400Z,0.60
2018-07-02T05:52:08.125Z,0.50
2018-07-02T05:54:36.830Z,0.60
2018-07-02T05:57:05.548Z,0.50
2018-07-02T05:59:34.219Z,0.60
2018-07-02T06:02:02.936Z,0.90
2018-07-02T06:04:31.702Z,0.57
2018-07-02T06:07:00.209Z,0.60
2018-07-02T06:09:28.796Z,0.57
2018-07-02T06:11:57.490Z,0.60
2018-07-02T06:14:26.127Z,0.50
2018-07-02T06:16:54.794Z,0.80
2018-07-02T06:19:23.643Z,0.50
2018-07-02T06:21:52.225Z,0.57
2018-07-02T06:24:20.874Z,0.60
2018-07-02T06:26:49.488Z,0.50
2018-07-02T06:29:18.219Z,0.50
2018-07-02T06:31:46.918Z,0.70
2018-07-02T06:34:15.887Z,0.60
2018-07-02T06:36:44.609Z,0.50
2018-07-02T06:39:13.394Z,0.60
2018-07-02T06:41:42.067Z,0.57
2018-07-02T06:44:10.616Z,0.37
2018-07-02T06:46:39.389Z,0.60
2018-07-02T06:49:07.997Z,0.70
2018-07-02T06:51:36.654Z,0.60
2018-07-02T06:54:05.517Z,0.40
2018-07-02T06:56:34.188Z,0.80
2018-07-02T06:59:02.847Z,0.33
2018-07-02T07:01:31.583Z,0.40
2018-07-02T07:04:00.191Z,0.50
2018-07-02T07:06:28.828Z,0.60
2018-07-02T07:08:57.464Z,0.70
2018-07-02T07:11:27.051Z,0.60
2018-07-02T07:13:55.734Z,0.50
2018-07-02T07:16:24.389Z,0.50
2018-07-02T07:18:53.062Z,0.80
2018-07-02T07:21:21.760Z,0.60
2018-07-02T07:23:50.424Z,0.50
2018-07-02T07:26:19.024Z,0.50
2018-07-02T07:28:47.621Z,1.07
2018-07-02T07:31:16.643Z,0.40
2018-07-02T07:33:45.328Z,0.70
2018-07-02T07:36:13.972Z,0.50
2018-07-02T07:38:42.715Z,0.67
2018-07-02T07:41:11.295Z,0.50
2018-07-02T07:43:39.886Z,0.60
2018-07-02T07:46:08.645Z,0.60
2018-07-02T07:48:37.282Z,0.70
2018-07-02T07:51:06.084Z,0.70
2018-07-02T07:53:34.791Z,0.77
2018-07-02T07:56:03.503Z,0.50
2018-07-02T07:58:32.259Z,0.70
2018-07-02T08:01:00.932Z,0.50
2018-07-02T08:03:29.552Z,0.70
2018-07-02T08:05:58.207Z,0.50
2018-07-02T08:08:26.888Z,0.87
2018-07-02T08:10:55.541Z,0.67
2018-07-02T08:13:24.224Z,0.60
2018-07-02T08:15:52.843Z,0.70
2018-07-02T08:18:21.521Z,0.63
2018-07-02T08:20:50.263Z,0.70
2018-07-02T08:23:18.964Z,0.70
2018-07-02T08:25:48.601Z,0.63
2018-07-02T08:28:17.461Z,0.63
2018-07-02T08:30:46.253Z,0.80
2018-07-02T08:33:15.342Z,0.80
2018-07-02T08:35:44.049Z,0.73
2018-07-02T08:38:12.683Z,0.80
2018-07-02T08:40:41.391Z,0.77
2018-07-02T08:43:10.209Z,1.17
2018-07-02T08:45:39.036Z,1.00
2018-07-02T08:48:07.659Z,0.90
2018-07-02T08:50:36.311Z,0.80
2018-07-02T08:53:04.878Z,0.80
2018-07-02T08:55:33.535Z,1.10
2018-07-02T08:58:02.554Z,1.30
2018-07-02T09:00:31.220Z,0.70
2018-07-02T09:03:00.034Z,1.10
2018-07-02T09:05:28.788Z,1.40
2018-07-02T09:07:57.480Z,0.80
2018-07-02T09:10:26.107Z,0.87
2018-07-02T09:12:54.702Z,0.80
2018-07-02T09:15:23.371Z,0.60
2018-07-02T09:17:52.002Z,0.80
2018-07-02T09:20:20.842Z,0.80
2018-07-02T09:22:49.546Z,1.10
2018-07-02T09:25:18.284Z,0.90
2018-07-02T09:27:47.023Z,1.10
2018-07-02T09:30:15.680Z,1.10
2018-07-02T09:32:44.418Z,1.00
2018-07-02T09:35:13.170Z,0.90
2018-07-02T09:37:41.836Z,0.73
2018-07-02T09:40:10.662Z,0.80
2018-07-02T09:42:39.237Z,1.00
2018-07-02T09:45:07.819Z,0.87
2018-07-02T09:47:36.387Z,0.70
2018-07-02T09:50:05.173Z,0.77
2018-07-02T09:52:33.953Z,0.70
2018-07-02T09:55:02.547Z,1.00
2018-07-02T09:57:31.260Z,1.00
2018-07-02T10:00:00.068Z,1.17
2018-07-02T10:02:28.954Z,1.30
2018-07-02T10:04:57.553Z,1.10
2018-07-02T10:07:26.407Z,1.07
2018-07-02T10:09:55.137Z,1.40
2018-07-02T10:12:23.807Z,1.10
2018-07-02T10:14:52.495Z,1.50
2018-07-02T10:17:21.306Z,1.30
2018-07-02T10:19:49.892Z,1.70
2018-07-02T10:22:18.566Z,1.33
2018-07-02T10:24:47.307Z,1.40
2018-07-02T10:27:16.027Z,1.33
2018-07-02T10:29:44.679Z,1.63
2018-07-02T10:32:13.303Z,1.50
2018-07-02T10:34:41.894Z,1.57
2018-07-02T10:37:10.618Z,1.50
2018-07-02T10:39:39.299Z,1.60
2018-07-02T10:42:07.914Z,1.77
2018-07-02T10:44:36.717Z,1.90
2018-07-02T10:47:05.561Z,1.57
2018-07-02T10:49:34.213Z,1.40
2018-07-02T10:52:02.935Z,1.60
2018-07-02T10:54:31.629Z,1.70
2018-07-02T10:57:00.263Z,1.70
2018-07-02T10:59:28.969Z,1.90
2018-07-02T11:01:57.673Z,1.97
2018-07-02T11:04:26.406Z,2.00
2018-07-02T11:06:55.068Z,1.70
2018-07-02T11:09:23.749Z,1.83
2018-07-02T11:11:52.407Z,1.47
2018-07-02T11:14:21.090Z,1.83
2018-07-02T11:16:49.710Z,1.90
2018-07-02T11:19:18.321Z,1.83
2018-07-02T11:21:47.077Z,1.90
2018-07-02T11:24:15.722Z,2.00
2018-07-02T11:26:44.319Z,2.13
2018-07-02T11:29:13.112Z,2.57
2018-07-02T11:31:41.741Z,1.70
2018-07-02T11:34:10.401Z,2.23
2018-07-02T11:36:39.022Z,1.50
2018-07-02T11:39:09.575Z,1.97
2018-07-02T11:41:38.309Z,1.90
2018-07-02T11:44:07.139Z,2.10
2018-07-02T11:46:35.965Z,2.00
2018-07-02T11:49:04.690Z,1.60
2018-07-02T11:51:33.340Z,2.00
2018-07-02T11:54:02.071Z,1.90
2018-07-02T11:56:30.816Z,1.70
2018-07-02T11:58:59.549Z,1.43
2018-07-02T12:01:28.224Z,1.50
2018-07-02T12:03:56.859Z,1.80
2018-07-02T12:06:25.552Z,1.30
2018-07-02T12:08:54.164Z,1.30
2018-07-02T12:11:22.758Z,1.40
2018-07-02T12:13:51.546Z,1.50
2018-07-02T12:16:20.214Z,1.50
2018-07-02T12:18:48.896Z,1.50
2018-07-02T12:21:17.829Z,1.57
2018-07-02T12:23:46.498Z,1.50
2018-07-02T12:26:15.213Z,1.60
2018-07-02T12:28:43.816Z,1.30
2018-07-02T12:31:12.411Z,1.30
2018-07-02T12:33:41.081Z,1.30
2018-07-02T12:36:09.926Z,1.17
2018-07-02T12:38:38.608Z,1.37
2018-07-02T12:41:07.516Z,1.30
2018-07-02T12:43:36.544Z,1.43
2018-07-02T12:46:05.325Z,1.10
2018-07-02T12:48:33.970Z,1.40
2018-07-02T12:51:02.664Z,1.50
2018-07-02T12:53:31.390Z,1.53
2018-07-02T12:56:00.281Z,1.70
2018-07-02T12:58:28.834Z,1.57
2018-07-02T13:00:57.469Z,1.23
2018-07-02T13:03:26.197Z,1.70
2018-07-02T13:05:54.811Z,1.40
2018-07-02T13:08:23.468Z,1.53
2018-07-02T13:10:52.271Z,1.30
2018-07-02T13:13:20.916Z,1.30
2018-07-02T13:15:49.566Z,1.20
2018-07-02T13:18:18.247Z,1.53
2018-07-02T13:20:46.940Z,1.60
2018-07-02T13:23:15.650Z,1.40
2018-07-02T13:25:44.390Z,1.60
2018-07-02T13:28:13.073Z,1.50
2018-07-02T13:30:41.724Z,1.53
2018-07-02T13:33:10.401Z,1.13
2018-07-02T13:35:39.001Z,1.47
2018-07-02T13:38:07.597Z,1.33
2018-07-02T13:40:36.265Z,1.37
2018-07-02T13:43:05.111Z,1.40
2018-07-02T13:45:33.771Z,1.13
2018-07-02T13:48:02.416Z,1.57
2018-07-02T13:50:31.109Z,1.30
2018-07-02T13:52:59.748Z,1.30
2018-07-02T13:55:28.411Z,1.50
2018-07-02T13:57:57.147Z,1.40
2018-07-02T14:00:25.907Z,1.40
2018-07-02T14:02:54.472Z,1.60
2018-07-02T14:05:23.112Z,1.43
2018-07-02T14:07:51.797Z,1.50
2018-07-02T14:10:20.431Z,1.40
2018-07-02T14:12:49.103Z,1.47
2018-07-02T14:15:17.903Z,1.40
2018-07-02T14:17:46.535Z,1.50
2018-07-02T14:20:15.172Z,1.40
2018-07-02T14:22:44.015Z,1.50
2018-07-02T14:25:12.687Z,1.40
2018-07-02T14:27:41.379Z,1.60
2018-07-02T14:30:10.067Z,1.40
2018-07-02T14:32:38.754Z,1.40
2018-07-02T14:35:07.431Z,1.53
2018-07-02T14:37:36.158Z,1.43
2018-07-02T14:40:05.054Z,1.67
2018-07-02T14:42:33.668Z,1.93
2018-07-02T14:45:02.690Z,1.70
2018-07-02T14:47:31.256Z,1.80
2018-07-02T14:49:59.957Z,1.70
2018-07-02T14:52:29.412Z,1.60
2018-07-02T14:54:58.258Z,1.73
2018-07-02T14:57:26.931Z,1.70
2018-07-02T14:59:55.581Z,1.57
2018-07-02T15:02:24.291Z,1.80
2018-07-02T15:04:53.178Z,1.40
2018-07-02T15:07:22.045Z,1.73
2018-07-02T15:09:51.229Z,1.60
2018-07-02T15:12:20.748Z,1.50
2018-07-02T15:14:49.963Z,1.90
2018-07-02T15:17:19.066Z,1.90
2018-07-02T15:19:48.298Z,1.67
2018-07-02T15:22:16.946Z,1.60
2018-07-02T15:24:45.687Z,1.70
2018-07-02T15:27:14.362Z,1.80
2018-07-02T15:29:43.465Z,1.60
2018-07-02T15:32:12.525Z,1.77
2018-07-02T15:34:41.792Z,1.50
2018-07-02T15:37:10.722Z,1.60
2018-07-02T15:39:40.304Z,1.77
2018-07-02T15:42:08.905Z,1.47
2018-07-02T15:44:37.756Z,1.50
2018-07-02T15:47:06.374Z,1.60
2018-07-02T15:49:35.134Z,1.37
2018-07-02T15:52:03.838Z,1.70
2018-07-02T15:54:32.485Z,1.60
2018-07-02T15:57:01.198Z,1.60
2018-07-02T15:59:29.945Z,1.73
2018-07-02T16:01:58.728Z,1.80
2018-07-02T16:04:27.719Z,1.63
2018-07-02T16:06:56.882Z,1.60
2018-07-02T16:09:26.185Z,1.60
2018-07-02T16:11:55.729Z,1.53
2018-07-02T16:14:25.279Z,1.50
2018-07-02T16:16:54.815Z,1.83
2018-07-02T16:19:23.982Z,1.73
2018-07-02T16:21:52.693Z,2.00
2018-07-02T16:24:21.363Z,1.70
2018-07-02T16:26:50.060Z,1.80
2018-07-02T16:29:18.927Z,1.73
2018-07-02T16:31:48.096Z,1.73
2018-07-02T16:34:17.288Z,1.60
2018-07-02T16:36:46.436Z,1.90
2018-07-02T16:39:15.678Z,1.60
2018-07-02T16:41:44.537Z,1.77
2018-07-02T16:44:14.909Z,1.50
2018-07-02T16:46:43.493Z,1.80
2018-07-02T16:49:12.201Z,1.93
2018-07-02T16:51:40.882Z,1.73
2018-07-02T16:54:09.765Z,1.57
2018-07-02T16:56:39.404Z,1.30
2018-07-02T16:59:08.739Z,1.77
2018-07-02T17:01:37.875Z,1.77
2018-07-02T17:04:08.375Z,1.63
2018-07-02T17:06:37.559Z,1.43
2018-07-02T17:09:10.002Z,1.50
2018-07-02T17:11:39.802Z,1.60
2018-07-02T17:14:09.217Z,1.70
2018-07-02T17:16:38.939Z,1.60
2018-07-02T17:19:08.215Z,1.70
2018-07-02T17:21:37.166Z,1.60
2018-07-02T17:24:06.470Z,1.70
2018-07-02T17:26:35.126Z,1.57
2018-07-02T17:29:03.834Z,1.50
2018-07-02T17:31:32.503Z,1.50
2018-07-02T17:34:01.255Z,1.43
2018-07-02T17:36:29.910Z,1.60
2018-07-02T17:38:58.597Z,1.60
2018-07-02T17:41:27.242Z,1.67
2018-07-02T17:43:55.939Z,1.63
2018-07-02T17:46:24.609Z,1.70
2018-07-02T17:48:53.164Z,1.90
2018-07-02T17:51:21.867Z,1.30
2018-07-02T17:53:50.441Z,1.60
2018-07-02T17:56:19.198Z,1.53
2018-07-02T17:58:47.935Z,1.60
2018-07-02T18:01:16.718Z,1.60
2018-07-02T18:03:45.475Z,1.53
2018-07-02T18:06:14.225Z,1.50
2018-07-02T18:08:42.969Z,1.80
2018-07-02T18:11:11.653Z,1.60
2018-07-02T18:13:40.289Z,1.80
2018-07-02T18:16:09.042Z,1.70
2018-07-02T18:18:37.713Z,1.43
2018-07-02T18:21:06.583Z,1.80
2018-07-02T18:23:35.621Z,1.83
2018-07-02T18:26:05.956Z,1.73
2018-07-02T18:28:35.205Z,1.60
2018-07-02T18:31:05.031Z,1.40
2018-07-02T18:33:34.202Z,1.50
2018-07-02T18:36:03.134Z,1.70
2018-07-02T18:38:32.073Z,1.57
2018-07-02T18:41:00.707Z,1.50
2018-07-02T18:43:29.318Z,1.70
2018-07-02T18:45:58.161Z,1.70
2018-07-02T18:48:27.116Z,1.77
2018-07-02T18:50:56.426Z,1.70
2018-07-02T18:53:25.204Z,1.60
2018-07-02T18:55:53.831Z,1.67
2018-07-02T18:58:22.607Z,1.60
2018-07-02T19:00:51.309Z,1.60
2018-07-02T19:03:20.118Z,1.87
2018-07-02T19:05:48.975Z,1.83
2018-07-02T19:08:17.618Z,1.90
2018-07-02T19:10:46.348Z,1.73
2018-07-02T19:13:15.054Z,1.70
2018-07-02T19:15:43.757Z,1.87
2018-07-02T19:18:12.539Z,1.93
2018-07-02T19:20:41.200Z,1.50
2018-07-02T19:23:09.876Z,1.87
2018-07-02T19:25:38.490Z,1.83
2018-07-02T19:28:07.732Z,1.80
2018-07-02T19:30:37.133Z,1.80
2018-07-02T19:33:06.544Z,1.67
2018-07-02T19:35:35.744Z,1.80
2018-07-02T19:38:04.805Z,1.93
2018-07-02T19:40:33.666Z,1.70
2018-07-02T19:43:02.474Z,2.10
2018-07-02T19:45:31.230Z,2.10
2018-07-02T19:47:59.877Z,2.10
2018-07-02T19:50:28.546Z,2.10
2018-07-02T19:52:57.162Z,1.87
2018-07-02T19:55:27.079Z,1.83
2018-07-02T19:57:55.992Z,1.87
2018-07-02T20:00:25.882Z,2.50
2018-07-02T20:02:55.159Z,2.20
2018-07-02T20:05:26.115Z,2.63
2018-07-02T20:07:55.350Z,2.50
2018-07-02T20:10:24.154Z,2.53
2018-07-02T20:12:52.768Z,2.97
2018-07-02T20:15:21.778Z,2.80
2018-07-02T20:17:50.666Z,2.80
2018-07-02T20:20:19.843Z,2.63
2018-07-02T20:22:48.856Z,2.60
2018-07-02T20:25:17.958Z,2.60
2018-07-02T20:27:46.769Z,2.60
2018-07-02T20:30:15.576Z,2.40
2018-07-02T20:32:44.253Z,2.40
2018-07-02T20:35:12.894Z,2.60
2018-07-02T20:37:41.609Z,2.60
2018-07-02T20:40:11.131Z,3.03
2018-07-02T20:42:40.473Z,3.13
2018-07-02T20:45:09.912Z,2.87
2018-07-02T20:47:39.568Z,2.67
2018-07-02T20:50:08.501Z,2.67
2018-07-02T20:52:37.762Z,2.60
2018-07-02T20:55:06.741Z,2.63
2018-07-02T20:57:35.461Z,2.60
2018-07-02T21:00:05.068Z,2.60
2018-07-02T21:02:33.830Z,2.73
2018-07-02T21:05:02.467Z,2.90
2018-07-02T21:07:31.689Z,2.97
2018-07-02T21:10:00.571Z,3.10
2018-07-02T21:12:29.347Z,2.97
2018-07-02T21:14:58.206Z,2.53
2018-07-02T21:17:26.880Z,2.57
2018-07-02T21:19:55.592Z,2.33
2018-07-02T21:22:24.354Z,2.57
2018-07-02T21:24:53.043Z,2.57
2018-07-02T21:27:22.567Z,2.70
2018-07-02T21:29:51.468Z,2.47
2018-07-02T21:32:20.833Z,2.50
2018-07-02T21:34:49.502Z,2.60
2018-07-02T21:37:18.221Z,2.47
2018-07-02T21:39:46.822Z,2.20
2018-07-02T21:42:15.755Z,2.40
2018-07-02T21:44:44.519Z,2.50
2018-07-02T21:47:14.517Z,2.17
2018-07-02T21:49:44.514Z,2.30
2018-07-02T21:52:13.525Z,2.40
2018-07-02T21:54:42.352Z,2.40
2018-07-02T21:57:11.569Z,2.57
2018-07-02T21:59:40.350Z,2.10
2018-07-02T22:02:09.691Z,2.10
2018-07-02T22:04:38.373Z,2.10
2018-07-02T22:07:07.101Z,2.30
2018-07-02T22:09:35.937Z,2.30
2018-07-02T22:12:04.747Z,2.80
2018-07-02T22:14:33.579Z,2.33
2018-07-02T22:17:02.294Z,2.40
2018-07-02T22:19:30.942Z,2.20
2018-07-02T22:21:59.561Z,2.33
2018-07-02T22:24:28.263Z,2.10
2018-07-02T22:26:56.940Z,2.43
2018-07-02T22:29:25.645Z,2.50
2018-07-02T22:31:54.357Z,2.50
2018-07-02T22:34:23.035Z,2.30
2018-07-02T22:36:51.796Z,2.70
2018-07-02T22:39:20.523Z,2.50
2018-07-02T22:41:49.262Z,2.33
2018-07-02T22:44:17.854Z,2.33
2018-07-02T22:46:46.509Z,2.77
2018-07-02T22:49:15.206Z,2.20
2018-07-02T22:51:43.839Z,2.63
2018-07-02T22:54:12.657Z,2.50
2018-07-02T22:56:41.305Z,2.60
2018-07-02T22:59:09.947Z,2.60
2018-07-02T23:01:38.701Z,2.47
2018-07-02T23:04:07.528Z,2.30
2018-07-02T23:06:36.240Z,2.20
2018-07-02T23:09:07.002Z,2.50
2018-07-02T23:11:35.750Z,2.30
2018-07-02T23:14:04.575Z,2.47
2018-07-02T23:16:33.287Z,2.40
2018-07-02T23:19:02.009Z,2.23
2018-07-02T23:21:30.687Z,2.40
2018-07-02T23:23:59.396Z,2.50
2018-07-02T23:26:28.136Z,2.27
2018-07-02T23:28:56.849Z,2.53
2018-07-02T23:31:25.625Z,2.40
2018-07-02T23:33:54.372Z,2.43
2018-07-02T23:36:22.987Z,2.40
2018-07-02T23:38:51.602Z,2.63
2018-07-02T23:41:20.551Z,2.03
2018-07-02T23:43:49.237Z,2.30
2018-07-02T23:46:17.871Z,2.37
2018-07-02T23:48:46.477Z,2.00
2018-07-02T23:51:15.087Z,2.33
2018-07-02T23:53:43.711Z,2.40
2018-07-02T23:56:12.375Z,2.50
2018-07-02T23:58:40.974Z,2.30
